Time;durP1;ratioP1;P1;durP2;ratioP2;P2;SDS_P1;SDS_P2;PMS_P1;PMS_P2;Temp;Humidity;BMP_temperature;BMP_pressure;BME280_temperature;BME280_humidity;BME280_pressure;Samples;Min_cycle;Max_cycle;Signal;HPM_P1;HPM_P2
2021/12/05 00:22:57;;;;;;;8.10;1.17;;;18.50;99.90;;;;;;5057711;28;20209;-66
2021/12/05 00:25:31;;;;;;;5.38;1.77;;;18.50;99.90;;;;;;5051163;28;20183;-60
2021/12/05 00:28:21;;;;;;;9.73;1.45;;;18.60;99.90;;;;;;5061180;28;20171;-58
2021/12/05 00:42:02;;;;;;;9.00;1.40;;;18.90;99.90;;;;;;5053068;28;20185;-58
2021/12/05 00:47:41;;;;;;;8.30;1.73;;;19.00;99.90;;;;;;5052842;28;20181;-58
2021/12/05 01:03:54;;;;;;;9.23;1.92;;;19.20;99.90;;;;;;5064904;28;20178;-58
2021/12/05 01:09:19;;;;;;;12.95;1.60;;;19.20;99.90;;;;;;5066594;28;20182;-57
2021/12/05 01:16:46;;;;;;;9.35;1.45;;;18.90;99.90;;;;;;5066263;28;20266;-58
2021/12/05 01:19:16;;;;;;;5.68;1.25;;;18.80;99.90;;;;;;5054802;28;20201;-58
2021/12/05 01:21:45;;;;;;;10.68;1.67;;;18.70;99.90;;;;;;5055959;28;20237;-57
2021/12/05 01:24:33;;;;;;;9.80;1.42;;;18.70;99.90;;;;;;5053860;28;20174;-57
2021/12/05 01:29:57;;;;;;;7.22;1.42;;;18.60;99.90;;;;;;5066089;28;20178;-58
2021/12/05 01:51:44;;;;;;;9.35;1.83;;;18.60;99.90;;;;;;5066651;28;20184;-58
2021/12/05 02:35:13;;;;;;;10.68;1.60;;;18.80;99.90;;;;;;5065671;28;20209;-58
2021/12/05 02:45:33;;;;;;;12.25;2.13;;;18.80;99.90;;;;;;5063933;28;20177;-58
2021/12/05 02:48:00;;;;;;;7.80;1.40;;;18.80;99.90;;;;;;5057131;28;20478;-57
2021/12/05 02:50:31;;;;;;;10.82;1.55;;;18.80;99.90;;;;;;5052217;28;20636;-58
2021/12/05 02:53:08;;;;;;;13.80;2.10;;;18.70;99.90;;;;;;5061749;28;20174;-57
2021/12/05 02:55:39;;;;;;;8.93;1.63;;;18.80;99.90;;;;;;5058963;28;20199;-56
2021/12/05 02:58:16;;;;;;;8.25;1.23;;;18.80;99.90;;;;;;5058597;28;20216;-58
2021/12/05 03:01:04;;;;;;;11.05;1.70;;;18.70;99.90;;;;;;5061331;28;20628;-57
2021/12/05 03:03:33;;;;;;;8.70;1.55;;;18.70;99.90;;;;;;5057721;28;20205;-58
2021/12/05 03:06:11;;;;;;;11.15;1.67;;;18.60;99.90;;;;;;5053610;28;20236;-57
2021/12/05 03:08:39;;;;;;;9.63;1.67;;;18.60;99.90;;;;;;5065194;28;20647;-57
2021/12/05 03:11:10;;;;;;;8.50;1.30;;;18.70;99.90;;;;;;5064544;28;20387;-58
2021/12/05 03:13:40;;;;;;;6.55;1.17;;;18.70;99.90;;;;;;5064620;28;20210;-58
2021/12/05 03:16:10;;;;;;;10.77;1.27;;;18.70;99.90;;;;;;5063815;28;20185;-57
2021/12/05 03:18:37;;;;;;;9.27;1.30;;;18.80;99.90;;;;;;5064508;28;20205;-57
2021/12/05 03:21:07;;;;;;;7.43;1.55;;;18.80;99.90;;;;;;5057567;28;20171;-58
2021/12/05 03:23:38;;;;;;;10.02;1.77;;;18.80;99.90;;;;;;5053545;28;20647;-58
2021/12/05 03:26:07;;;;;;;10.75;1.42;;;18.80;99.90;;;;;;5060360;28;20285;-58
2021/12/05 03:28:34;;;;;;;9.45;1.65;;;18.90;99.90;;;;;;5064251;28;20213;-58
2021/12/05 03:31:03;;;;;;;12.45;1.65;;;18.90;99.90;;;;;;5058818;28;20182;-57
2021/12/05 03:33:30;;;;;;;6.50;1.23;;;18.90;99.90;;;;;;5063525;28;20178;-58
2021/12/05 03:35:58;;;;;;;10.85;1.65;;;18.90;99.90;;;;;;5057781;28;20194;-57
2021/12/05 03:38:25;;;;;;;9.23;1.88;;;18.90;99.90;;;;;;5060503;28;20217;-58
2021/12/05 03:40:53;;;;;;;4.88;1.10;;;18.80;99.90;;;;;;5067749;28;20174;-58
2021/12/05 03:43:21;;;;;;;11.38;1.35;;;18.90;99.90;;;;;;5067959;28;20249;-57
2021/12/05 03:45:53;;;;;;;10.50;1.42;;;18.90;99.90;;;;;;5059087;28;20278;-58
2021/12/05 03:48:24;;;;;;;8.95;1.63;;;18.90;99.90;;;;;;5056626;28;20218;-57
2021/12/05 03:50:51;;;;;;;10.52;1.38;;;18.80;99.90;;;;;;5057356;28;20687;-58
2021/12/05 03:53:19;;;;;;;7.65;1.58;;;18.80;99.90;;;;;;5067642;28;20182;-56
2021/12/05 03:55:50;;;;;;;9.90;1.30;;;18.80;99.90;;;;;;5067773;28;20190;-57
2021/12/05 03:58:19;;;;;;;7.85;1.70;;;18.80;99.90;;;;;;5066474;28;20582;-60
2021/12/05 04:00:50;;;;;;;9.88;1.98;;;18.80;99.90;;;;;;5061462;28;20418;-58
2021/12/05 04:03:18;;;;;;;8.73;1.23;;;18.80;99.90;;;;;;5058388;28;20655;-57
2021/12/05 04:05:47;;;;;;;8.05;1.20;;;18.70;99.90;;;;;;5066224;28;20239;-57
2021/12/05 04:08:17;;;;;;;7.88;1.13;;;18.80;99.90;;;;;;5065658;28;20558;-58
2021/12/05 04:10:49;;;;;;;7.57;1.55;;;18.80;99.90;;;;;;5060901;28;20186;-59
2021/12/05 04:13:17;;;;;;;15.18;2.35;;;18.80;99.90;;;;;;5061623;28;20170;-57
2021/12/05 04:15:44;;;;;;;9.15;1.33;;;18.80;99.90;;;;;;5052861;28;20221;-58
2021/12/05 04:18:11;;;;;;;6.15;1.48;;;18.80;99.90;;;;;;5062488;28;20203;-58
2021/12/05 04:20:38;;;;;;;9.25;1.30;;;18.90;99.90;;;;;;5051385;28;20606;-67
2021/12/05 04:23:08;;;;;;;13.48;1.40;;;18.80;99.90;;;;;;5062339;28;20182;-64
2021/12/05 04:25:37;;;;;;;13.20;1.75;;;18.70;99.90;;;;;;5061617;28;20293;-65
2021/12/05 04:28:06;;;;;;;8.10;1.70;;;18.80;99.90;;;;;;5055018;28;20720;-65
2021/12/05 04:30:34;;;;;;;7.80;1.20;;;18.80;99.90;;;;;;5066661;28;20193;-66
2021/12/05 04:33:01;;;;;;;6.20;1.33;;;18.70;99.90;;;;;;5068416;28;20620;-64
2021/12/05 04:35:31;;;;;;;9.60;1.92;;;18.80;99.90;;;;;;5064916;28;20641;-67
2021/12/05 04:37:58;;;;;;;7.97;2.67;;;18.80;99.90;;;;;;5061741;28;20256;-66
2021/12/05 04:40:26;;;;;;;5.43;1.58;;;18.90;99.90;;;;;;5053059;28;20182;-67
2021/12/05 04:42:53;;;;;;;7.30;1.45;;;18.90;99.90;;;;;;5054510;28;20637;-64
2021/12/05 04:45:26;;;;;;;5.75;0.95;;;18.90;99.90;;;;;;5053687;28;20744;-64
2021/12/05 04:47:55;;;;;;;7.75;1.35;;;18.90;99.90;;;;;;5049246;28;20214;-63
2021/12/05 04:50:23;;;;;;;9.20;1.35;;;18.90;99.90;;;;;;5063210;28;20569;-63
2021/12/05 04:52:51;;;;;;;10.07;1.30;;;18.90;99.90;;;;;;5066153;28;20237;-64
2021/12/05 04:55:20;;;;;;;7.60;1.20;;;18.90;99.90;;;;;;5065855;28;20202;-64
2021/12/05 04:57:48;;;;;;;8.43;1.05;;;19.00;99.90;;;;;;5054868;28;20768;-64
2021/12/05 05:00:39;;;;;;;11.38;1.73;;;19.00;99.90;;;;;;5060138;28;20209;-64
2021/12/05 05:03:07;;;;;;;9.02;1.20;;;19.00;99.90;;;;;;5066763;28;20174;-72
2021/12/05 05:05:37;;;;;;;19.80;6.20;;;19.00;99.90;;;;;;5064956;28;20213;-71
2021/12/05 05:08:04;;;;;;;6.20;1.70;;;18.90;99.90;;;;;;5065851;28;20213;-74
2021/12/05 05:10:32;;;;;;;11.60;1.85;;;19.00;99.90;;;;;;5067469;28;20228;-71
2021/12/05 05:12:59;;;;;;;10.77;1.60;;;18.90;99.90;;;;;;5066920;28;20173;-69
2021/12/05 05:15:30;;;;;;;6.10;1.42;;;18.90;99.90;;;;;;5066087;28;20381;-70
2021/12/05 05:17:59;;;;;;;7.45;1.85;;;18.80;99.90;;;;;;5066859;28;20210;-70
2021/12/05 05:42:28;;;;;;;6.38;1.15;;;18.90;99.90;;;;;;5059346;28;20161;-70
2021/12/05 05:47:37;;;;;;;7.50;0.95;;;18.90;99.90;;;;;;5056094;28;20196;-71
2021/12/05 05:50:06;;;;;;;4.57;0.90;;;18.80;99.90;;;;;;5064838;28;20201;-71
2021/12/05 05:52:34;;;;;;;7.05;1.27;;;18.70;99.90;;;;;;5057750;28;20182;-71
2021/12/05 05:55:01;;;;;;;11.07;1.52;;;18.70;99.90;;;;;;5063156;28;20194;-70
2021/12/05 05:57:36;;;;;;;10.35;1.67;;;18.70;99.90;;;;;;5066950;28;20170;-68
2021/12/05 06:00:13;;;;;;;9.15;1.17;;;18.70;99.90;;;;;;5060495;28;20174;-68
2021/12/05 06:05:29;;;;;;;9.25;1.70;;;18.80;99.90;;;;;;5055399;28;20228;-67
2021/12/05 06:07:56;;;;;;;8.15;2.65;;;18.70;99.90;;;;;;5067326;28;20182;-68
2021/12/05 06:10:31;;;;;;;8.77;1.40;;;18.70;99.90;;;;;;5062142;28;20174;-68
2021/12/05 06:12:59;;;;;;;10.82;1.67;;;18.70;99.90;;;;;;5061599;28;20171;-68
2021/12/05 06:15:29;;;;;;;12.80;2.60;;;18.80;99.90;;;;;;5063430;28;20194;-67
2021/12/05 06:17:56;;;;;;;10.02;1.38;;;18.70;99.90;;;;;;5066962;28;20207;-67
2021/12/05 06:20:26;;;;;;;9.23;1.40;;;18.70;99.90;;;;;;5065375;28;20178;-69
2021/12/05 06:22:54;;;;;;;6.35;1.20;;;18.70;99.90;;;;;;5062134;28;20268;-67
2021/12/05 06:25:24;;;;;;;9.18;1.00;;;18.70;99.90;;;;;;5066626;28;20198;-68
2021/12/05 06:28:04;;;;;;;5.95;0.95;;;18.70;99.90;;;;;;5054943;28;20402;-68
2021/12/05 06:46:59;;;;;;;5.63;1.08;;;18.60;99.90;;;;;;5039929;28;20257;-68
2021/12/05 06:49:26;;;;;;;10.60;1.73;;;18.60;99.90;;;;;;5033695;28;20194;-69
2021/12/05 06:51:53;;;;;;;7.57;1.52;;;18.60;99.90;;;;;;5036038;28;20253;-68
2021/12/05 06:54:22;;;;;;;8.20;1.35;;;18.60;99.90;;;;;;5030071;28;20705;-66
2021/12/05 06:56:49;;;;;;;5.85;1.63;;;18.60;99.90;;;;;;5034490;28;20767;-68
2021/12/05 06:59:16;;;;;;;12.85;2.05;;;18.60;99.90;;;;;;5038761;28;20217;-67
2021/12/05 07:01:44;;;;;;;14.05;1.58;;;18.60;99.90;;;;;;5042605;28;20170;-70
2021/12/05 07:07:05;;;;;;;12.63;2.13;;;18.50;99.90;;;;;;5039652;28;20195;-70
2021/12/05 07:09:33;;;;;;;12.15;1.45;;;18.60;99.90;;;;;;5029081;28;20692;-71
2021/12/05 07:22:54;;;;;;;8.93;1.38;;;18.50;99.90;;;;;;5060382;28;20183;-63
2021/12/05 07:25:30;;;;;;;6.75;1.30;;;18.40;99.90;;;;;;5068564;28;20538;-66
2021/12/05 07:41:55;;;;;;;10.68;1.95;;;18.40;99.90;;;;;;5052459;28;20185;-65
2021/12/05 07:44:22;;;;;;;6.13;1.00;;;18.40;99.90;;;;;;5054943;28;20190;-65
2021/12/05 07:46:49;;;;;;;8.35;1.17;;;18.40;99.90;;;;;;5060335;28;20183;-69
2021/12/05 07:49:17;;;;;;;6.22;1.10;;;18.40;99.90;;;;;;5063890;28;20201;-69
2021/12/05 07:51:47;;;;;;;9.68;1.50;;;18.40;99.90;;;;;;5062069;28;20186;-69
2021/12/05 07:54:35;;;;;;;6.53;1.10;;;18.40;99.90;;;;;;5067612;28;20182;-69
2021/12/05 07:57:19;;;;;;;5.00;1.00;;;18.40;99.90;;;;;;5061501;28;20533;-63
2021/12/05 08:00:04;;;;;;;9.45;1.17;;;18.40;99.90;;;;;;5056707;28;20665;-69
2021/12/05 08:16:19;;;;;;;10.40;1.42;;;18.40;99.90;;;;;;5057546;28;20220;-69
2021/12/05 08:18:46;;;;;;;9.10;1.40;;;18.30;99.90;;;;;;5054369;28;20284;-66
2021/12/05 08:21:14;;;;;;;7.35;1.13;;;18.30;99.90;;;;;;5056607;28;20211;-60
2021/12/05 08:23:41;;;;;;;4.72;1.00;;;18.30;99.90;;;;;;5057902;28;20287;-67
2021/12/05 08:26:13;;;;;;;11.65;1.30;;;18.30;99.90;;;;;;5060881;28;20595;-61
2021/12/05 08:34:45;;;;;;;6.15;1.27;;;18.30;99.90;;;;;;5068123;28;20203;-63
2021/12/05 09:23:59;;;;;;;7.07;1.35;;;18.30;99.90;;;;;;5059488;28;20183;-61
2021/12/05 09:51:43;;;;;;;9.70;1.00;;;18.30;99.90;;;;;;5061748;28;20189;-61
2021/12/05 10:10:37;;;;;;;10.70;1.05;;;18.20;99.90;;;;;;5065406;28;20220;-60
2021/12/05 10:35:45;;;;;;;9.85;1.40;;;18.20;99.90;;;;;;5045890;28;20682;-60
2021/12/05 10:38:18;;;;;;;13.07;2.35;;;18.20;99.90;;;;;;5046351;28;20234;-59
2021/12/05 10:41:06;;;;;;;6.50;1.20;;;18.30;99.90;;;;;;5056044;28;20232;-59
2021/12/05 10:43:34;;;;;;;11.75;1.30;;;18.20;99.90;;;;;;5061362;28;20174;-59
2021/12/05 10:46:10;;;;;;;12.57;1.50;;;18.20;99.90;;;;;;5066199;28;20572;-61
2021/12/05 10:48:49;;;;;;;9.00;1.48;;;18.30;99.90;;;;;;5048448;28;20724;-59
2021/12/05 10:51:25;;;;;;;8.80;1.30;;;18.20;99.90;;;;;;5065632;28;20194;-60
2021/12/05 10:53:55;;;;;;;6.88;1.65;;;18.20;99.90;;;;;;5064797;28;20174;-58
2021/12/05 10:56:23;;;;;;;10.18;1.35;;;18.20;99.90;;;;;;5064993;28;20210;-60
2021/12/05 10:58:58;;;;;;;5.68;1.15;;;18.20;99.90;;;;;;5044337;28;20206;-60
2021/12/05 11:01:34;;;;;;;8.57;1.33;;;18.20;99.90;;;;;;5044270;28;20224;-60
2021/12/05 11:04:24;;;;;;;7.63;1.48;;;18.20;99.90;;;;;;5046126;28;20694;-59
2021/12/05 11:07:23;;;;;;;8.32;1.05;;;18.10;99.90;;;;;;5045862;28;20351;-58
2021/12/05 11:09:59;;;;;;;7.95;1.15;;;18.10;99.90;;;;;;5049330;28;20174;-59
2021/12/05 11:12:32;;;;;;;8.93;1.20;;;18.10;99.90;;;;;;5063720;28;20203;-59
2021/12/05 11:15:14;;;;;;;4.53;0.77;;;18.10;99.90;;;;;;5065863;28;20218;-59
2021/12/05 11:17:47;;;;;;;11.27;1.65;;;18.00;99.90;;;;;;5056524;28;20167;-59
2021/12/05 11:20:28;;;;;;;6.78;1.08;;;18.00;99.90;;;;;;5054747;28;20525;-60
2021/12/05 11:22:55;;;;;;;8.95;0.90;;;17.90;99.90;;;;;;5059237;28;20504;-60
2021/12/05 11:25:29;;;;;;;9.68;1.20;;;17.90;99.90;;;;;;5065800;28;20194;-59
2021/12/05 11:27:57;;;;;;;5.38;0.93;;;17.90;99.90;;;;;;5064059;28;20174;-59
2021/12/05 11:30:34;;;;;;;8.20;1.10;;;17.90;99.90;;;;;;5065874;28;20167;-59
2021/12/05 11:33:19;;;;;;;4.95;0.80;;;17.90;99.90;;;;;;5053039;28;20548;-62
2021/12/05 11:35:50;;;;;;;9.60;1.08;;;17.80;99.90;;;;;;5049527;28;20199;-58
2021/12/05 11:38:32;;;;;;;8.07;1.20;;;17.70;99.90;;;;;;5045488;28;20706;-59
2021/12/05 11:41:10;;;;;;;8.90;1.00;;;17.60;99.90;;;;;;5048504;28;20509;-59
2021/12/05 11:43:46;;;;;;;8.93;1.77;;;17.70;99.90;;;;;;5056133;28;20162;-58
2021/12/05 11:46:14;;;;;;;8.02;1.27;;;17.70;99.90;;;;;;5065455;28;20193;-59
2021/12/05 11:48:43;;;;;;;6.10;1.30;;;17.70;99.90;;;;;;5056120;28;20689;-58
2021/12/05 11:51:25;;;;;;;8.85;1.27;;;17.70;99.90;;;;;;5069148;28;20193;-60
2021/12/05 11:54:09;;;;;;;5.88;1.38;;;17.60;99.90;;;;;;5069438;28;20247;-58
2021/12/05 11:56:52;;;;;;;10.70;1.50;;;17.60;99.90;;;;;;5067127;28;20269;-59
2021/12/05 11:59:35;;;;;;;9.48;1.63;;;17.60;99.90;;;;;;5067728;28;20229;-60
2021/12/05 12:02:10;;;;;;;12.25;2.03;;;17.70;99.90;;;;;;5066540;28;20502;-59
2021/12/05 12:04:57;;;;;;;10.02;1.58;;;17.70;99.90;;;;;;5058113;28;20640;-59
2021/12/05 12:07:30;;;;;;;10.18;1.55;;;17.80;99.90;;;;;;5068602;28;20167;-58
2021/12/05 12:10:04;;;;;;;7.45;1.40;;;17.80;99.90;;;;;;5068789;28;20170;-58
2021/12/05 12:12:31;;;;;;;7.25;1.63;;;17.90;99.90;;;;;;5052232;28;20703;-59
2021/12/05 12:14:58;;;;;;;7.80;1.25;;;17.80;99.90;;;;;;5048704;28;20349;-58
2021/12/05 12:17:26;;;;;;;8.23;1.20;;;17.80;99.90;;;;;;5048406;28;20262;-59
2021/12/05 12:19:55;;;;;;;22.45;1.60;;;17.90;99.90;;;;;;5050088;28;20202;-59
2021/12/05 12:22:26;;;;;;;23.13;2.33;;;17.80;99.90;;;;;;5061290;28;20707;-60
2021/12/05 12:24:57;;;;;;;12.15;1.77;;;17.90;99.90;;;;;;5060152;28;20186;-59
2021/12/05 12:27:25;;;;;;;7.50;1.20;;;17.90;99.90;;;;;;5047981;28;20229;-59
2021/12/05 12:29:52;;;;;;;18.17;2.28;;;17.90;99.90;;;;;;5049188;28;20661;-58
2021/12/05 12:32:26;;;;;;;11.63;1.75;;;17.90;99.90;;;;;;5048284;28;20183;-59
2021/12/05 12:35:17;;;;;;;9.77;1.10;;;17.90;99.90;;;;;;5068452;28;20191;-59
2021/12/05 12:38:03;;;;;;;8.38;1.67;;;17.80;99.90;;;;;;5064409;28;20189;-60
2021/12/05 12:40:49;;;;;;;20.27;2.10;;;17.80;99.90;;;;;;5067223;28;20181;-60
2021/12/05 12:43:38;;;;;;;10.63;1.52;;;17.80;99.90;;;;;;5066808;28;20186;-59
2021/12/05 12:46:40;;;;;;;9.85;1.80;;;17.80;99.90;;;;;;5063950;28;20191;-58
2021/12/05 12:49:16;;;;;;;11.82;2.08;;;17.80;99.90;;;;;;5047961;28;20705;-59
2021/12/05 12:51:46;;;;;;;8.65;1.58;;;17.80;99.90;;;;;;5047008;28;20191;-58
2021/12/05 12:54:25;;;;;;;13.10;1.60;;;17.70;99.90;;;;;;5046861;28;20563;-59
2021/12/05 12:57:20;;;;;;;6.88;1.30;;;17.70;99.90;;;;;;5048230;28;20175;-59
2021/12/05 13:00:06;;;;;;;9.65;2.03;;;17.80;99.90;;;;;;5059086;28;20253;-59
2021/12/05 13:05:52;;;;;;;12.13;1.80;;;17.80;99.90;;;;;;5065070;28;20198;-59
2021/12/05 13:11:17;;;;;;;9.18;1.55;;;17.70;99.90;;;;;;5063994;28;20221;-60
2021/12/05 13:13:57;;;;;;;9.90;0.98;;;17.80;99.90;;;;;;5057023;28;20765;-60
2021/12/05 13:16:32;;;;;;;7.60;1.20;;;17.70;99.90;;;;;;5045285;28;20203;-59
2021/12/05 13:19:11;;;;;;;13.65;1.42;;;17.80;99.90;;;;;;5049573;28;20236;-59
2021/12/05 13:21:42;;;;;;;13.77;1.35;;;17.80;99.90;;;;;;5031794;28;20225;-59
2021/12/05 13:24:25;;;;;;;13.05;1.60;;;17.70;99.90;;;;;;5048631;28;20190;-59
2021/12/05 13:27:29;;;;;;;6.93;1.10;;;17.70;99.90;;;;;;5045429;28;20199;-59
2021/12/05 13:29:57;;;;;;;9.05;1.55;;;17.70;99.90;;;;;;5046555;28;20186;-59
2021/12/05 13:32:29;;;;;;;7.07;1.40;;;17.80;99.90;;;;;;5034961;28;20667;-59
2021/12/05 13:35:02;;;;;;;9.15;1.13;;;17.80;99.90;;;;;;5063958;28;20187;-60
2021/12/05 13:37:48;;;;;;;12.25;1.92;;;17.80;99.90;;;;;;5059361;28;20236;-59
2021/12/05 13:40:22;;;;;;;7.50;0.93;;;17.80;99.90;;;;;;5060001;28;20791;-58
2021/12/05 13:43:06;;;;;;;12.45;1.58;;;17.80;99.90;;;;;;5046748;28;20178;-59
2021/12/05 13:45:43;;;;;;;7.97;1.10;;;17.80;99.90;;;;;;5052579;28;20566;-59
2021/12/05 13:48:25;;;;;;;11.50;1.85;;;17.80;99.90;;;;;;5065591;28;20631;-59
2021/12/05 13:50:58;;;;;;;10.90;1.20;;;17.80;99.90;;;;;;5065561;28;20217;-59
2021/12/05 13:53:32;;;;;;;5.95;1.60;;;17.80;99.90;;;;;;5053877;28;20174;-58
2021/12/05 13:56:13;;;;;;;17.55;1.70;;;17.80;99.90;;;;;;5060173;28;20704;-59
2021/12/05 13:58:47;;;;;;;8.45;1.20;;;17.80;99.90;;;;;;5047620;28;20206;-58
2021/12/05 14:01:19;;;;;;;8.10;1.23;;;17.80;99.90;;;;;;5047060;28;20197;-60
2021/12/05 14:03:54;;;;;;;8.68;1.20;;;17.80;99.90;;;;;;5047650;28;20224;-59
2021/12/05 14:06:38;;;;;;;8.85;1.27;;;17.70;99.90;;;;;;5048743;28;20208;-59
2021/12/05 14:09:20;;;;;;;11.85;1.10;;;17.90;99.90;;;;;;5047188;28;20171;-59
2021/12/05 14:12:00;;;;;;;9.52;1.60;;;17.90;99.90;;;;;;5063028;28;20400;-59
2021/12/05 14:14:38;;;;;;;7.85;1.00;;;17.90;99.90;;;;;;5046637;28;20276;-59
2021/12/05 14:17:09;;;;;;;12.45;1.15;;;17.90;99.90;;;;;;5066863;28;20174;-59
2021/12/05 14:19:40;;;;;;;8.60;1.45;;;17.90;99.90;;;;;;5061837;28;20198;-59
2021/12/05 14:22:10;;;;;;;8.45;1.48;;;18.00;99.90;;;;;;5047029;28;20510;-59
2021/12/05 14:24:41;;;;;;;10.38;1.38;;;17.90;99.90;;;;;;5046748;28;20187;-59
2021/12/05 14:27:14;;;;;;;8.07;1.42;;;17.90;99.90;;;;;;5051503;28;20253;-58
2021/12/05 14:29:43;;;;;;;6.85;0.82;;;17.90;99.90;;;;;;5047317;28;20647;-59
2021/12/05 14:32:15;;;;;;;10.40;1.23;;;17.90;99.90;;;;;;5047165;28;20175;-60
2021/12/05 14:34:43;;;;;;;9.43;1.55;;;17.90;99.90;;;;;;5049687;28;20431;-58
2021/12/05 14:37:16;;;;;;;9.95;1.30;;;17.90;99.90;;;;;;5055575;28;20261;-59
2021/12/05 14:39:55;;;;;;;6.88;1.75;;;17.90;99.90;;;;;;5065920;28;23237;-59
2021/12/05 14:42:25;;;;;;;8.73;1.48;;;17.90;99.90;;;;;;5048657;28;20584;-59
2021/12/05 14:44:56;;;;;;;10.57;1.10;;;17.90;99.90;;;;;;5047438;28;20260;-59
2021/12/05 14:47:26;;;;;;;8.48;0.95;;;17.80;99.90;;;;;;5048546;28;20568;-58
2021/12/05 14:49:59;;;;;;;8.38;1.23;;;17.90;99.90;;;;;;5059857;28;20171;-59
2021/12/05 14:52:31;;;;;;;7.07;1.10;;;17.90;99.90;;;;;;5053355;28;20552;-60
2021/12/05 14:54:59;;;;;;;8.10;1.35;;;17.90;99.90;;;;;;5066856;28;20186;-59
2021/12/05 14:57:29;;;;;;;7.70;1.85;;;18.00;99.90;;;;;;5066759;28;20283;-58
2021/12/05 15:00:20;;;;;;;10.85;1.85;;;17.90;99.90;;;;;;5066339;28;20241;-60
2021/12/05 15:02:47;;;;;;;6.68;1.55;;;17.80;99.90;;;;;;5046970;28;20242;-58
2021/12/05 15:05:19;;;;;;;11.55;1.85;;;17.70;99.90;;;;;;5046428;28;20204;-60
2021/12/05 15:07:46;;;;;;;10.88;1.33;;;17.70;99.90;;;;;;5046564;28;20194;-60
2021/12/05 15:10:21;;;;;;;7.80;1.30;;;17.60;99.90;;;;;;5046859;28;20272;-58
2021/12/05 15:12:54;;;;;;;10.25;1.20;;;17.60;99.90;;;;;;5045197;28;20253;-59
2021/12/05 15:15:24;;;;;;;11.88;1.40;;;17.60;99.90;;;;;;5046275;28;20207;-58
2021/12/05 15:17:52;;;;;;;8.30;1.00;;;17.60;99.90;;;;;;5047250;28;20254;-59
2021/12/05 15:20:23;;;;;;;8.60;1.20;;;17.70;99.90;;;;;;5046715;28;20179;-58
2021/12/05 15:22:59;;;;;;;7.95;1.50;;;17.60;99.90;;;;;;5048934;28;20206;-57
2021/12/05 15:25:30;;;;;;;6.95;1.00;;;17.60;99.90;;;;;;5050228;28;20248;-59
2021/12/05 15:27:58;;;;;;;13.55;1.33;;;17.50;99.90;;;;;;5050315;28;20246;-59
2021/12/05 15:30:28;;;;;;;11.48;1.15;;;17.40;99.90;;;;;;5050144;28;20171;-59
2021/12/05 15:33:05;;;;;;;9.90;1.13;;;17.40;99.90;;;;;;5050274;28;20183;-59
2021/12/05 15:35:32;;;;;;;12.10;1.70;;;17.30;99.90;;;;;;5057301;28;20205;-59
2021/12/05 15:38:09;;;;;;;11.57;1.20;;;17.30;99.90;;;;;;5055839;28;20206;-58
2021/12/05 15:40:39;;;;;;;14.25;2.25;;;17.30;99.90;;;;;;5050353;28;20159;-59
2021/12/05 15:43:15;;;;;;;9.45;1.05;;;17.40;99.90;;;;;;5061292;28;20182;-58
2021/12/05 15:45:44;;;;;;;7.13;1.00;;;17.50;99.90;;;;;;5055792;28;20232;-59
2021/12/05 15:48:11;;;;;;;11.57;1.00;;;17.50;99.90;;;;;;5051857;28;20171;-59
2021/12/05 15:50:40;;;;;;;6.53;1.05;;;17.50;99.90;;;;;;5069616;28;20699;-60
2021/12/05 15:53:10;;;;;;;9.77;1.20;;;17.60;99.90;;;;;;5056941;28;20226;-58
2021/12/05 15:55:50;;;;;;;4.80;1.00;;;17.60;99.90;;;;;;5048873;28;20328;-58
2021/12/05 15:58:32;;;;;;;8.57;0.82;;;17.70;99.90;;;;;;5049448;28;20605;-59
2021/12/05 16:01:23;;;;;;;11.75;1.40;;;17.70;99.90;;;;;;5049894;28;20571;-59
2021/12/05 16:03:53;;;;;;;7.72;0.70;;;17.80;99.90;;;;;;5049659;28;20175;-59
2021/12/05 16:06:29;;;;;;;8.93;1.45;;;17.80;99.90;;;;;;5049653;28;20187;-59
2021/12/05 16:08:57;;;;;;;14.15;1.50;;;17.90;99.90;;;;;;5050155;28;20178;-58
2021/12/05 16:11:24;;;;;;;7.57;1.02;;;17.80;99.90;;;;;;5049323;28;20560;-60
2021/12/05 16:13:54;;;;;;;6.63;1.00;;;17.80;99.90;;;;;;5051356;28;20309;-58
2021/12/05 16:16:26;;;;;;;13.68;1.77;;;17.80;99.90;;;;;;5049411;28;20551;-59
2021/12/05 16:19:00;;;;;;;9.57;1.30;;;17.80;99.90;;;;;;5047882;28;21661;-60
2021/12/05 16:21:33;;;;;;;8.25;1.35;;;17.80;99.90;;;;;;5054781;28;20166;-59
2021/12/05 16:24:15;;;;;;;8.50;1.08;;;17.80;99.90;;;;;;5049623;28;20192;-57
2021/12/05 16:26:44;;;;;;;6.97;1.02;;;17.80;99.90;;;;;;5057563;28;20228;-58
2021/12/05 16:29:14;;;;;;;10.80;1.55;;;17.80;99.90;;;;;;5057930;28;20216;-59
2021/12/05 16:31:47;;;;;;;12.35;1.08;;;17.80;99.90;;;;;;5049119;28;20175;-58
2021/12/05 16:34:25;;;;;;;6.28;0.80;;;17.80;99.90;;;;;;5050238;28;20231;-60
2021/12/05 16:36:56;;;;;;;10.55;1.30;;;17.80;99.90;;;;;;5049479;28;20171;-59
2021/12/05 16:39:32;;;;;;;14.32;1.50;;;17.80;99.90;;;;;;5049899;28;20283;-59
2021/12/05 16:42:07;;;;;;;6.60;1.20;;;17.90;99.90;;;;;;5069264;28;20275;-60
2021/12/05 16:44:37;;;;;;;9.45;1.33;;;17.90;99.90;;;;;;5056548;28;20190;-61
2021/12/05 16:47:11;;;;;;;10.77;1.80;;;17.90;99.90;;;;;;5068702;28;20190;-59
2021/12/05 16:49:41;;;;;;;5.50;0.98;;;17.90;99.90;;;;;;5068768;28;20179;-59
2021/12/05 16:52:15;;;;;;;11.00;1.33;;;17.90;99.90;;;;;;5068931;28;20205;-60
2021/12/05 16:54:54;;;;;;;7.47;0.90;;;17.90;99.90;;;;;;5048621;28;20190;-59
2021/12/05 16:57:32;;;;;;;9.50;0.80;;;17.90;99.90;;;;;;5048966;28;20177;-58
2021/12/05 17:00:08;;;;;;;14.10;2.28;;;18.00;99.90;;;;;;5050566;28;20209;-59
2021/12/05 17:02:44;;;;;;;9.30;1.73;;;18.00;99.90;;;;;;5048328;28;20672;-59
2021/12/05 17:05:21;;;;;;;8.68;1.05;;;18.00;99.90;;;;;;5058361;28;20552;-60
2021/12/05 17:08:00;;;;;;;7.50;1.00;;;18.00;99.90;;;;;;5067896;28;20170;-58
2021/12/05 17:10:27;;;;;;;8.73;1.23;;;18.00;99.90;;;;;;5068489;28;20719;-58
2021/12/05 17:13:05;;;;;;;8.95;1.40;;;18.00;99.90;;;;;;5059199;28;20237;-60
2021/12/05 17:15:34;;;;;;;9.25;1.20;;;18.00;99.90;;;;;;5065821;28;20319;-59
2021/12/05 17:18:03;;;;;;;8.25;0.93;;;18.00;99.90;;;;;;5056734;28;20289;-59
2021/12/05 17:20:43;;;;;;;5.28;1.00;;;18.00;99.90;;;;;;5048536;28;20179;-58
2021/12/05 17:23:24;;;;;;;11.13;1.40;;;18.10;99.90;;;;;;5054633;28;20170;-59
2021/12/05 17:25:55;;;;;;;7.63;0.82;;;18.10;99.90;;;;;;5048177;28;20194;-59
2021/12/05 17:28:37;;;;;;;5.88;1.17;;;18.10;99.90;;;;;;5048425;28;20256;-59
2021/12/05 17:31:08;;;;;;;7.63;1.42;;;18.10;99.90;;;;;;5050209;28;20216;-60
2021/12/05 17:33:45;;;;;;;7.53;1.40;;;18.00;99.90;;;;;;5048227;28;20182;-59
2021/12/05 17:36:24;;;;;;;5.47;0.85;;;18.00;99.90;;;;;;5048219;28;20676;-59
2021/12/05 17:38:54;;;;;;;9.05;1.10;;;17.80;99.90;;;;;;5062515;28;20225;-59
2021/12/05 17:41:22;;;;;;;7.88;0.95;;;17.80;99.90;;;;;;5049908;28;20701;-60
2021/12/05 17:43:49;;;;;;;9.68;1.50;;;17.80;99.90;;;;;;5064430;28;20534;-59
2021/12/05 17:46:17;;;;;;;6.70;1.00;;;17.80;99.90;;;;;;5064841;28;20194;-58
2021/12/05 17:48:44;;;;;;;9.80;1.23;;;17.80;99.90;;;;;;5066872;28;20185;-58
2021/12/05 17:51:11;;;;;;;10.25;1.20;;;17.80;99.90;;;;;;5064334;28;20655;-59
2021/12/05 17:53:40;;;;;;;6.15;1.25;;;17.70;99.90;;;;;;5059764;28;20194;-59
2021/12/05 17:56:18;;;;;;;11.90;1.45;;;17.70;99.90;;;;;;5030170;28;20195;-59
2021/12/05 18:03:58;;;;;;;13.70;1.55;;;17.60;99.90;;;;;;5067018;28;20606;-59
2021/12/05 18:06:25;;;;;;;12.55;1.58;;;17.50;99.90;;;;;;5056545;28;20187;-59
2021/12/05 18:08:52;;;;;;;7.30;1.23;;;17.50;99.90;;;;;;5057325;28;20178;-60
2021/12/05 18:11:23;;;;;;;12.18;1.10;;;17.50;99.90;;;;;;5062122;28;20176;-58
2021/12/05 18:13:56;;;;;;;6.03;1.20;;;17.50;99.90;;;;;;5047395;28;20218;-59
2021/12/05 18:16:27;;;;;;;15.27;1.95;;;17.50;99.90;;;;;;5047282;28;20194;-58
2021/12/05 18:18:58;;;;;;;8.85;1.17;;;17.50;99.90;;;;;;5046932;28;20470;-59
2021/12/05 18:21:27;;;;;;;8.30;1.55;;;17.50;99.90;;;;;;5046051;28;20656;-61
2021/12/05 18:23:56;;;;;;;10.48;1.58;;;17.50;99.90;;;;;;5066894;28;20758;-59
2021/12/05 18:26:25;;;;;;;1.80;0.70;;;17.40;99.90;;;;;;5050405;28;20302;-59
2021/12/05 18:28:53;;;;;;;8.15;1.27;;;17.40;99.90;;;;;;5047000;28;20206;-58
2021/12/05 18:31:25;;;;;;;7.00;1.20;;;17.40;99.90;;;;;;5047092;28;20248;-59
2021/12/05 18:34:05;;;;;;;7.43;1.08;;;17.40;99.90;;;;;;5046635;28;20202;-60
2021/12/05 18:36:35;;;;;;;6.60;1.13;;;17.40;99.90;;;;;;5054914;28;20268;-58
2021/12/05 18:39:05;;;;;;;15.10;1.55;;;17.40;99.90;;;;;;5062079;28;20206;-59
2021/12/05 18:41:34;;;;;;;11.80;1.65;;;17.40;99.90;;;;;;5059804;28;20164;-59
2021/12/05 18:44:03;;;;;;;13.02;2.80;;;17.40;99.90;;;;;;5067028;28;20249;-59
2021/12/05 18:46:30;;;;;;;5.95;0.90;;;17.40;99.90;;;;;;5066952;28;20166;-58
2021/12/05 18:48:57;;;;;;;9.75;1.52;;;17.40;99.90;;;;;;5063800;28;20167;-60
2021/12/05 18:51:24;;;;;;;10.02;1.10;;;17.40;99.90;;;;;;5046638;28;20261;-59
2021/12/05 18:53:52;;;;;;;5.90;1.17;;;17.40;99.90;;;;;;5046801;28;20179;-59